createdAt,value
2022-12-12T00:01:28.678Z,63.35
2022-12-12T00:04:00.283Z,63.40
2022-12-12T00:06:31.273Z,63.29
2022-12-12T00:09:01.470Z,63.14
2022-12-12T00:11:31.953Z,63.02
2022-12-12T00:14:02.128Z,62.94
2022-12-12T00:16:33.023Z,63.12
2022-12-12T00:19:03.161Z,63.31
2022-12-12T00:21:33.626Z,63.11
2022-12-12T00:24:03.926Z,62.95
2022-12-12T00:26:36.334Z,63.02
2022-12-12T00:29:08.228Z,62.84
2022-12-12T00:31:38.611Z,63.00
2022-12-12T00:34:09.967Z,63.01
2022-12-12T00:36:39.791Z,63.03
2022-12-12T00:39:13.782Z,63.13
2022-12-12T00:41:46.873Z,62.97
2022-12-12T00:44:16.821Z,63.18
2022-12-12T00:46:46.894Z,63.08
2022-12-12T00:49:17.314Z,63.18
2022-12-12T00:51:49.416Z,62.97
2022-12-12T00:54:19.796Z,63.43
2022-12-12T00:56:49.915Z,63.48
2022-12-12T00:59:21.847Z,63.36
2022-12-12T01:01:52.161Z,63.48
2022-12-12T01:04:22.478Z,63.73
2022-12-12T01:06:52.622Z,63.55
2022-12-12T01:09:22.736Z,63.44
2022-12-12T01:11:53.406Z,63.41
2022-12-12T01:14:23.579Z,63.15
2022-12-12T01:16:53.832Z,63.18
2022-12-12T01:19:24.085Z,62.77
2022-12-12T01:21:54.307Z,62.60
2022-12-12T01:24:24.568Z,62.56
2022-12-12T01:26:54.589Z,62.48
2022-12-12T01:29:24.633Z,62.37
2022-12-12T01:31:55.259Z,62.34
2022-12-12T01:34:25.465Z,62.10
2022-12-12T01:36:55.695Z,61.90
2022-12-12T01:39:25.838Z,61.93
2022-12-12T01:41:55.820Z,61.96
2022-12-12T01:44:46.401Z,61.67
2022-12-12T01:47:19.876Z,61.59
2022-12-12T01:49:56.919Z,61.62
2022-12-12T01:52:35.199Z,61.63
2022-12-12T01:55:09.382Z,60.62
2022-12-12T01:57:45.051Z,60.25
2022-12-12T02:00:16.653Z,59.90
2022-12-12T02:02:48.471Z,59.96
2022-12-12T02:05:30.572Z,60.21
2022-12-12T02:08:06.269Z,60.11
2022-12-12T02:10:37.016Z,60.23
2022-12-12T02:13:12.006Z,60.31
2022-12-12T02:15:51.305Z,60.30
2022-12-12T02:19:07.347Z,60.28
2022-12-12T02:22:09.344Z,59.72
2022-12-12T02:24:58.398Z,59.61
2022-12-12T02:27:51.371Z,59.97
2022-12-12T02:30:35.339Z,59.94
2022-12-12T02:33:20.953Z,59.72
2022-12-12T02:36:32.121Z,59.92
2022-12-12T02:39:11.212Z,59.46
2022-12-12T02:42:06.169Z,59.65
2022-12-12T02:44:50.933Z,59.55
2022-12-12T02:47:32.344Z,58.92
2022-12-12T02:50:05.162Z,59.21
2022-12-12T02:52:36.643Z,58.61
2022-12-12T02:55:06.862Z,58.58
2022-12-12T02:57:36.805Z,58.64
2022-12-12T03:00:10.919Z,58.51
2022-12-12T03:03:22.586Z,58.91
2022-12-12T03:06:35.057Z,58.67
2022-12-12T03:09:44.537Z,58.70
2022-12-12T03:12:18.599Z,58.91
2022-12-12T03:15:16.819Z,58.68
2022-12-12T03:18:21.840Z,58.75
2022-12-12T03:21:07.664Z,58.95
2022-12-12T03:23:44.278Z,58.65
2022-12-12T03:26:55.663Z,58.46
2022-12-12T03:29:33.430Z,58.29
2022-12-12T03:32:10.708Z,58.07
2022-12-12T03:34:44.898Z,57.69
2022-12-12T03:37:22.356Z,58.04
2022-12-12T03:39:55.557Z,58.11
2022-12-12T03:42:32.811Z,58.28
2022-12-12T03:45:17.462Z,58.44
2022-12-12T03:48:26.732Z,58.09
2022-12-12T03:51:04.090Z,58.13
2022-12-12T03:53:59.873Z,58.42
2022-12-12T03:56:44.481Z,57.67
2022-12-12T03:59:27.697Z,57.62
2022-12-12T04:02:06.897Z,57.56
2022-12-12T04:04:44.404Z,57.00
2022-12-12T04:07:42.272Z,57.38
2022-12-12T04:10:31.931Z,57.12
2022-12-12T05:59:16.314Z,54.56
2022-12-12T06:01:46.602Z,54.48
2022-12-12T06:04:16.802Z,54.24
2022-12-12T06:06:48.084Z,53.28
2022-12-12T06:09:18.347Z,53.09
2022-12-12T06:11:48.494Z,52.94
2022-12-12T06:14:18.780Z,53.01
2022-12-12T06:16:48.950Z,52.75
2022-12-12T06:19:21.726Z,52.84
2022-12-12T06:21:52.227Z,52.69
2022-12-12T06:24:22.382Z,52.22
2022-12-12T06:26:52.617Z,52.26
2022-12-12T06:29:23.101Z,52.03
2022-12-12T06:31:53.228Z,52.25
2022-12-12T06:34:23.496Z,52.55
2022-12-12T06:36:54.566Z,52.96
2022-12-12T06:39:24.894Z,52.77
2022-12-12T06:41:55.093Z,52.92
2022-12-12T06:44:25.257Z,52.83
2022-12-12T06:46:55.282Z,52.94
2022-12-12T06:49:25.431Z,52.65
2022-12-12T06:51:55.703Z,52.23
2022-12-12T06:54:26.093Z,51.85
2022-12-12T06:56:56.357Z,52.33
2022-12-12T06:59:26.976Z,50.75
2022-12-12T07:01:59.345Z,50.37
2022-12-12T07:04:30.331Z,50.31
2022-12-12T07:07:00.685Z,50.27
2022-12-12T07:09:31.011Z,49.69
2022-12-12T07:12:01.312Z,50.16
2022-12-12T07:14:31.952Z,49.82
2022-12-12T07:17:02.162Z,50.00
2022-12-12T07:19:32.186Z,50.33
2022-12-12T07:22:09.081Z,50.65
2022-12-12T07:24:40.472Z,50.33
2022-12-12T07:27:10.410Z,50.49
2022-12-12T07:29:40.555Z,50.78
2022-12-12T07:32:10.701Z,50.86
2022-12-12T07:34:40.860Z,50.47
2022-12-12T07:37:11.106Z,50.43
2022-12-12T07:39:41.315Z,50.79
2022-12-12T07:42:11.467Z,50.70
2022-12-12T07:44:42.298Z,50.86
2022-12-12T07:47:13.593Z,50.89
2022-12-12T07:49:44.167Z,51.41
2022-12-12T07:52:14.363Z,51.23
2022-12-12T07:54:44.503Z,51.40
2022-12-12T07:57:14.536Z,51.13
2022-12-12T07:59:44.530Z,51.04
2022-12-12T08:02:14.594Z,51.17
2022-12-12T08:05:06.157Z,51.35
2022-12-12T08:07:35.919Z,51.40
2022-12-12T08:10:06.955Z,51.11
2022-12-12T08:12:37.358Z,51.72
2022-12-12T08:15:08.049Z,51.99
2022-12-12T08:17:38.187Z,52.01
2022-12-12T08:20:08.716Z,52.14
2022-12-12T08:22:39.483Z,52.63
2022-12-12T08:25:11.195Z,52.47
2022-12-12T08:27:41.561Z,51.95
2022-12-12T08:30:12.309Z,52.25
2022-12-12T08:32:42.664Z,52.15
2022-12-12T08:35:13.362Z,51.95
2022-12-12T08:37:43.842Z,51.92
2022-12-12T08:40:14.618Z,51.61
2022-12-12T08:42:44.812Z,51.86
2022-12-12T08:45:15.224Z,51.96
2022-12-12T08:47:45.733Z,51.93
2022-12-12T08:50:15.857Z,51.69
2022-12-12T08:52:45.975Z,51.21
2022-12-12T08:55:16.139Z,50.68
2022-12-12T08:57:46.430Z,50.83
2022-12-12T09:00:17.132Z,50.52
2022-12-12T09:02:48.620Z,50.47
2022-12-12T09:05:18.872Z,50.56
2022-12-12T09:07:49.075Z,50.56
2022-12-12T09:10:19.586Z,50.46
2022-12-12T09:12:50.213Z,50.31
2022-12-12T09:15:20.606Z,50.63
2022-12-12T09:17:50.875Z,50.70
2022-12-12T09:20:21.273Z,50.74
2022-12-12T09:22:51.471Z,51.12
2022-12-12T09:25:21.783Z,51.12
2022-12-12T09:27:51.971Z,51.40
2022-12-12T09:30:22.273Z,51.11
2022-12-12T09:32:52.430Z,51.00
2022-12-12T09:35:22.470Z,51.25
2022-12-12T09:37:52.947Z,51.02
2022-12-12T09:40:35.097Z,50.71
2022-12-12T09:43:06.419Z,50.62
2022-12-12T09:45:39.975Z,50.89
2022-12-12T09:48:11.444Z,50.85
2022-12-12T09:50:48.181Z,50.73
2022-12-12T09:53:22.367Z,50.66
2022-12-12T09:56:14.252Z,50.61
2022-12-12T09:58:56.884Z,50.61
2022-12-12T10:01:48.636Z,51.21
2022-12-12T10:04:18.561Z,51.07
2022-12-12T10:07:12.947Z,51.59
2022-12-12T10:09:46.063Z,51.31
2022-12-12T10:12:18.997Z,51.83
2022-12-12T10:14:51.897Z,51.25
2022-12-12T10:17:28.093Z,51.64
2022-12-12T10:20:19.285Z,52.00
2022-12-12T10:22:51.279Z,51.46
2022-12-12T10:25:46.491Z,51.70
2022-12-12T10:28:20.191Z,52.02
2022-12-12T10:31:08.989Z,52.89
2022-12-12T10:34:07.446Z,52.72
2022-12-12T10:36:56.551Z,52.80
2022-12-12T10:40:03.677Z,52.81
2022-12-12T10:42:33.788Z,52.96
2022-12-12T10:45:25.098Z,52.70
2022-12-12T10:47:55.320Z,52.54
2022-12-12T10:50:46.973Z,52.42
2022-12-12T10:53:17.484Z,52.49
2022-12-12T10:55:55.795Z,51.90
2022-12-12T10:58:38.790Z,52.08
2022-12-12T11:01:44.882Z,51.64
2022-12-12T11:04:18.083Z,51.22
2022-12-12T11:06:54.211Z,51.55
2022-12-12T11:09:26.383Z,51.47
2022-12-12T11:12:06.205Z,50.82
2022-12-12T11:14:54.482Z,50.90
2022-12-12T11:17:27.943Z,50.35
2022-12-12T11:20:01.074Z,50.37
2022-12-12T11:22:35.595Z,50.79
2022-12-12T11:25:05.963Z,50.97
2022-12-12T11:27:40.248Z,50.48
2022-12-12T11:30:32.581Z,50.46
2022-12-12T11:33:03.908Z,50.70
2022-12-12T11:35:47.774Z,51.07
2022-12-12T11:38:22.515Z,50.65
2022-12-12T11:41:20.320Z,51.28
2022-12-12T11:43:50.534Z,51.03
2022-12-12T11:46:25.861Z,51.25
2022-12-12T11:48:56.149Z,51.47
2022-12-12T11:51:45.383Z,51.24
2022-12-12T11:54:26.386Z,51.73
2022-12-12T11:57:14.204Z,51.64
2022-12-12T12:00:12.571Z,51.88
2022-12-12T12:03:07.504Z,52.27
2022-12-12T12:05:54.692Z,52.29
2022-12-12T12:08:37.557Z,52.58
2022-12-12T12:11:22.639Z,52.70
2022-12-12T12:14:12.860Z,52.65
2022-12-12T12:17:00.868Z,52.84
2022-12-12T12:19:48.713Z,52.43
2022-12-12T12:22:33.882Z,52.93
2022-12-12T12:25:15.954Z,52.93
2022-12-12T12:28:01.273Z,53.22
2022-12-12T12:30:56.941Z,53.20
2022-12-12T12:34:08.666Z,53.45
2022-12-12T12:36:53.793Z,53.43
2022-12-12T12:39:33.852Z,53.60
2022-12-12T12:42:27.773Z,53.90
2022-12-12T12:45:34.594Z,54.10
2022-12-12T12:48:16.773Z,54.27
2022-12-12T12:50:56.670Z,54.35
2022-12-12T12:53:35.715Z,54.07
2022-12-12T12:56:25.971Z,54.24
2022-12-12T12:59:01.231Z,54.02
2022-12-12T13:01:45.863Z,54.36
2022-12-12T13:04:48.474Z,54.32
2022-12-12T13:07:43.400Z,54.24
2022-12-12T13:10:29.640Z,53.76
2022-12-12T13:13:07.697Z,53.23
2022-12-12T13:15:53.955Z,53.03
2022-12-12T13:18:24.695Z,52.81
2022-12-12T13:21:13.343Z,52.87
2022-12-12T13:24:06.231Z,52.77
2022-12-12T13:27:01.264Z,52.47
2022-12-12T13:29:40.034Z,52.11
2022-12-12T13:32:15.716Z,52.34
2022-12-12T13:34:54.927Z,52.00
2022-12-12T13:37:26.023Z,52.00
2022-12-12T13:40:06.975Z,51.64
2022-12-12T13:43:09.592Z,51.61
2022-12-12T13:45:48.194Z,51.67
2022-12-12T13:48:30.435Z,51.40
2022-12-12T13:51:32.455Z,51.51
2022-12-12T13:54:22.662Z,51.51
2022-12-12T13:56:55.798Z,51.76
2022-12-12T13:59:27.251Z,51.61
2022-12-12T14:02:43.740Z,51.97
2022-12-12T14:05:16.961Z,51.87
2022-12-12T14:08:14.527Z,52.19
2022-12-12T14:10:53.865Z,52.24
2022-12-12T14:13:26.839Z,52.09
2022-12-12T14:16:00.269Z,52.36
2022-12-12T14:18:41.215Z,52.88
2022-12-12T14:21:15.581Z,52.78
2022-12-12T14:23:50.984Z,52.60
2022-12-12T14:26:30.313Z,52.89
2022-12-12T14:31:35.267Z,53.09
2022-12-12T14:34:23.812Z,53.00
2022-12-12T14:37:00.943Z,53.42
2022-12-12T14:39:49.099Z,53.34
2022-12-12T14:43:20.356Z,53.45
2022-12-12T14:45:42.642Z,53.32
2022-12-12T14:48:23.698Z,53.50
2022-12-12T14:51:02.770Z,53.66
2022-12-12T14:53:41.385Z,53.68
2022-12-12T14:56:34.966Z,53.92
2022-12-12T14:59:18.886Z,53.44
2022-12-12T15:01:56.121Z,53.59
2022-12-12T15:04:28.637Z,53.53
2022-12-12T15:09:51.344Z,53.51
2022-12-12T15:12:30.104Z,53.61
2022-12-12T15:15:01.345Z,53.99
2022-12-12T15:17:32.930Z,53.77
2022-12-12T15:20:18.975Z,53.44
2022-12-12T15:23:05.840Z,53.94
2022-12-12T15:25:58.923Z,54.05
2022-12-12T15:28:29.668Z,54.12
2022-12-12T15:30:59.952Z,53.96
2022-12-12T15:33:30.602Z,53.70
2022-12-12T15:36:04.446Z,53.60
2022-12-12T15:38:36.053Z,54.09
2022-12-12T15:41:13.332Z,53.83
2022-12-12T15:43:45.565Z,54.15
2022-12-12T15:46:17.737Z,54.29
2022-12-12T15:48:50.135Z,54.26
2022-12-12T15:51:25.264Z,54.05
2022-12-12T15:53:57.720Z,54.34
2022-12-12T15:56:33.505Z,53.90
2022-12-12T15:59:32.581Z,54.20
2022-12-12T16:02:43.221Z,54.37
2022-12-12T16:05:22.473Z,54.59
2022-12-12T16:07:52.971Z,54.20
2022-12-12T16:10:25.625Z,54.24
2022-12-12T16:13:23.449Z,54.43
2022-12-12T16:15:53.786Z,54.70
2022-12-12T16:18:26.889Z,54.39
2022-12-12T16:21:15.386Z,54.90
2022-12-12T16:23:45.727Z,54.73
2022-12-12T16:26:15.984Z,54.85
2022-12-12T16:28:46.296Z,54.78
2022-12-12T16:31:20.937Z,54.54
2022-12-12T16:33:51.856Z,54.70
2022-12-12T16:36:22.282Z,54.91
2022-12-12T16:38:52.568Z,55.19
2022-12-12T16:41:23.911Z,54.81
2022-12-12T16:43:54.172Z,54.85
2022-12-12T16:46:27.358Z,54.99
2022-12-12T16:48:59.515Z,55.29
2022-12-12T16:51:32.261Z,55.48
2022-12-12T16:54:03.208Z,55.27
2022-12-12T16:56:33.716Z,55.32
2022-12-12T16:59:03.989Z,55.55
2022-12-12T17:01:38.602Z,55.91
2022-12-12T17:04:18.089Z,55.89
2022-12-12T17:06:48.571Z,55.92
2022-12-12T17:09:19.244Z,55.68
2022-12-12T17:11:49.842Z,55.57
2022-12-12T17:14:25.493Z,55.91
2022-12-12T17:16:59.000Z,56.01
2022-12-12T17:19:29.323Z,55.91
2022-12-12T17:21:59.506Z,55.88
2022-12-12T17:24:29.706Z,55.67
2022-12-12T17:27:00.821Z,55.67
2022-12-12T17:29:31.130Z,55.86
2022-12-12T17:32:01.347Z,56.23
2022-12-12T17:34:31.635Z,55.89
2022-12-12T17:37:01.953Z,55.89
2022-12-12T17:39:32.369Z,55.94
2022-12-12T17:42:02.558Z,55.90
2022-12-12T17:44:32.781Z,56.15
2022-12-12T17:47:02.898Z,56.07
2022-12-12T17:49:33.081Z,56.05
2022-12-12T17:52:04.080Z,56.33
2022-12-12T17:54:34.726Z,56.41
2022-12-12T17:57:04.900Z,56.36
2022-12-12T17:59:35.338Z,56.46
2022-12-12T18:02:07.990Z,56.28
2022-12-12T18:04:41.527Z,56.29
2022-12-12T18:07:11.877Z,56.50
2022-12-12T18:09:41.921Z,56.34
2022-12-12T18:12:12.196Z,56.53
2022-12-12T18:14:42.188Z,56.25
2022-12-12T18:17:12.413Z,56.37
2022-12-12T18:19:44.519Z,56.23
2022-12-12T18:22:14.722Z,56.33
2022-12-12T18:24:44.854Z,56.13
2022-12-12T18:27:15.731Z,56.47
2022-12-12T18:30:06.562Z,56.17
2022-12-12T18:32:36.644Z,56.25
2022-12-12T18:35:06.922Z,56.14
2022-12-12T18:37:37.147Z,56.09
2022-12-12T18:40:09.252Z,55.79
2022-12-12T18:42:39.447Z,55.84
2022-12-12T18:45:11.394Z,55.62
2022-12-12T18:47:41.636Z,55.76
2022-12-12T18:50:12.555Z,55.47
2022-12-12T18:52:43.066Z,55.62
2022-12-12T18:55:13.387Z,55.32
2022-12-12T18:57:43.751Z,55.52
2022-12-12T19:00:14.623Z,55.41
2022-12-12T19:02:44.966Z,55.56
2022-12-12T19:05:15.724Z,55.27
2022-12-12T19:07:46.359Z,55.14
2022-12-12T19:10:17.163Z,54.95
2022-12-12T19:12:47.291Z,54.80
2022-12-12T19:15:18.008Z,55.07
2022-12-12T19:17:48.525Z,54.91
2022-12-12T19:20:18.900Z,54.90
2022-12-12T19:22:49.201Z,54.57
2022-12-12T19:25:20.657Z,54.74
2022-12-12T19:27:50.954Z,54.75
2022-12-12T19:30:20.966Z,54.66
2022-12-12T19:32:51.210Z,54.71
2022-12-12T19:35:21.446Z,54.75
2022-12-12T19:37:51.697Z,54.82
2022-12-12T19:40:22.227Z,54.87
2022-12-12T19:42:52.469Z,55.09
2022-12-12T19:45:22.623Z,55.07
2022-12-12T19:47:52.688Z,55.11
2022-12-12T19:50:22.698Z,54.93
2022-12-12T19:52:52.693Z,55.31
2022-12-12T19:55:22.853Z,55.26
2022-12-12T19:57:52.918Z,55.27
2022-12-12T20:00:23.156Z,55.38
2022-12-12T20:02:53.480Z,55.58
2022-12-12T20:05:23.655Z,55.55
2022-12-12T20:07:53.795Z,55.44
2022-12-12T20:10:23.790Z,55.53
2022-12-12T20:12:58.690Z,55.53
2022-12-12T20:15:29.201Z,55.91
2022-12-12T20:18:02.398Z,55.69
2022-12-12T20:20:32.520Z,55.67
2022-12-12T20:23:02.777Z,55.75
2022-12-12T20:25:32.819Z,55.76
2022-12-12T20:28:02.996Z,55.83
2022-12-12T20:30:33.183Z,55.61
2022-12-12T20:33:03.487Z,55.95
2022-12-12T20:35:37.233Z,56.13
2022-12-12T20:38:07.420Z,56.18
2022-12-12T20:40:41.456Z,56.08
2022-12-12T20:43:11.759Z,55.99
2022-12-12T20:45:41.932Z,56.05
2022-12-12T20:48:12.181Z,55.98
2022-12-12T20:50:42.360Z,56.15
2022-12-12T20:53:13.154Z,55.96
2022-12-12T20:55:43.306Z,56.24
2022-12-12T20:58:13.296Z,56.22
2022-12-12T21:00:43.369Z,56.16
2022-12-12T21:03:13.640Z,56.02
2022-12-12T21:05:43.863Z,56.41
2022-12-12T21:08:14.194Z,56.24
2022-12-12T21:10:44.462Z,56.29
2022-12-12T21:13:14.499Z,56.43
2022-12-12T21:15:44.517Z,56.13
2022-12-12T21:18:14.578Z,56.30
2022-12-12T21:20:47.293Z,56.44
2022-12-12T21:23:22.991Z,56.46
2022-12-12T21:25:53.312Z,56.27
2022-12-12T21:28:23.613Z,56.23
2022-12-12T21:30:53.786Z,56.54
2022-12-12T21:33:23.906Z,56.54
2022-12-12T21:35:54.224Z,56.46
2022-12-12T21:38:24.545Z,56.64
2022-12-12T21:40:55.456Z,56.68
2022-12-12T21:43:26.199Z,56.76
2022-12-12T21:45:56.309Z,56.82
2022-12-12T21:48:26.868Z,57.06
2022-12-12T21:50:57.589Z,57.13
2022-12-12T21:53:36.954Z,57.05
2022-12-12T21:56:11.807Z,56.91
2022-12-12T21:58:43.985Z,56.70
2022-12-12T22:01:17.422Z,56.99
2022-12-12T22:03:49.166Z,57.30
2022-12-12T22:06:24.959Z,57.04
2022-12-12T22:08:58.312Z,57.08
2022-12-12T22:11:40.767Z,57.23
2022-12-12T22:14:19.621Z,57.15
2022-12-12T22:16:49.822Z,57.34
2022-12-12T22:19:20.584Z,57.50
2022-12-12T22:21:52.141Z,57.19
2022-12-12T22:24:22.374Z,58.20
2022-12-12T22:26:53.321Z,58.46
2022-12-12T22:29:23.762Z,58.62
2022-12-12T22:31:54.697Z,58.26
2022-12-12T22:34:26.772Z,58.21
2022-12-12T22:36:56.985Z,58.10
2022-12-12T22:39:29.941Z,57.92
2022-12-12T22:42:00.518Z,58.06
2022-12-12T22:45:30.548Z,58.25
2022-12-12T22:48:00.724Z,58.31
2022-12-12T22:50:31.058Z,58.00
2022-12-12T22:53:01.291Z,57.45
2022-12-12T22:55:31.452Z,57.72
2022-12-12T22:58:01.489Z,57.59
2022-12-12T23:00:32.647Z,58.14
2022-12-12T23:03:02.813Z,58.69
2022-12-12T23:05:33.244Z,58.47
2022-12-12T23:08:03.459Z,58.61
2022-12-12T23:10:33.560Z,58.67
2022-12-12T23:13:03.510Z,58.68
2022-12-12T23:15:33.483Z,58.59
2022-12-12T23:18:03.427Z,58.45
2022-12-12T23:20:33.417Z,58.62
2022-12-12T23:23:03.426Z,58.69
2022-12-12T23:25:33.465Z,58.61
2022-12-12T23:28:03.923Z,58.60
2022-12-12T23:30:34.143Z,58.59
2022-12-12T23:33:04.363Z,58.65
2022-12-12T23:35:34.578Z,58.65
2022-12-12T23:38:05.004Z,58.78
2022-12-12T23:40:36.771Z,58.67
2022-12-12T23:43:06.931Z,58.74
2022-12-12T23:45:41.099Z,58.82
2022-12-12T23:48:11.350Z,58.68
2022-12-12T23:50:41.529Z,58.69
2022-12-12T23:53:11.485Z,58.55
2022-12-12T23:55:41.495Z,58.53
2022-12-12T23:58:11.507Z,58.61
